Time;durP1;ratioP1;P1;durP2;ratioP2;P2;SDS_P1;SDS_P2;PMS_P1;PMS_P2;Temp;Humidity;BMP_temperature;BMP_pressure;BME280_temperature;BME280_humidity;BME280_pressure;Samples;Min_cycle;Max_cycle;Signal;HPM_P1;HPM_P2
2022/10/27 00:02:21;;;;;;;11.30;6.20;;;14.20;99.90;;;;;;5047147;28;20067;-71
2022/10/27 00:04:46;;;;;;;11.02;6.07;;;14.20;99.90;;;;;;5060229;28;20047;-71
2022/10/27 00:07:12;;;;;;;8.60;6.13;;;14.00;99.90;;;;;;5030799;28;20037;-70
2022/10/27 00:09:38;;;;;;;8.05;5.63;;;14.00;99.90;;;;;;5076606;28;20055;-71
2022/10/27 00:12:04;;;;;;;8.85;6.03;;;14.00;99.90;;;;;;5057656;28;20045;-70
2022/10/27 00:14:29;;;;;;;14.02;7.07;;;14.00;99.90;;;;;;5055548;28;20121;-71
2022/10/27 00:16:56;;;;;;;12.05;6.78;;;14.00;99.90;;;;;;5075520;28;20127;-70
2022/10/27 00:19:23;;;;;;;14.30;6.75;;;14.00;99.90;;;;;;5064048;28;20041;-70
2022/10/27 00:21:50;;;;;;;9.98;6.15;;;13.80;99.90;;;;;;5047525;28;20077;-71
2022/10/27 00:24:17;;;;;;;13.88;7.18;;;13.70;99.90;;;;;;5060842;28;20083;-70
2022/10/27 00:26:43;;;;;;;9.55;5.57;;;13.70;99.90;;;;;;5064463;28;20040;-70
2022/10/27 00:29:09;;;;;;;14.05;7.55;;;13.60;99.90;;;;;;5073971;28;20098;-70
2022/10/27 00:31:34;;;;;;;15.20;7.13;;;13.60;99.90;;;;;;5054197;28;20068;-71
2022/10/27 00:34:00;;;;;;;13.13;7.22;;;13.70;99.90;;;;;;5074265;28;20045;-71
2022/10/27 00:36:26;;;;;;;9.27;6.38;;;13.70;99.90;;;;;;5036609;28;20106;-70
2022/10/27 00:38:56;;;;;;;12.95;7.20;;;13.70;99.90;;;;;;5064017;28;20480;-71
2022/10/27 00:41:31;;;;;;;13.63;6.80;;;13.70;99.90;;;;;;5046793;28;20044;-70
2022/10/27 00:43:58;;;;;;;11.07;7.40;;;13.70;99.90;;;;;;5061991;28;20037;-70
2022/10/27 00:46:27;;;;;;;12.18;7.32;;;13.70;99.90;;;;;;5040105;28;20040;-70
2022/10/27 00:49:01;;;;;;;14.52;7.47;;;13.70;99.90;;;;;;5049773;28;20045;-71
2022/10/27 00:51:28;;;;;;;17.52;7.82;;;13.80;99.90;;;;;;5050353;28;20489;-70
2022/10/27 00:53:54;;;;;;;13.05;7.35;;;13.80;99.90;;;;;;5053160;28;20076;-70
2022/10/27 00:56:21;;;;;;;16.55;8.10;;;13.90;99.90;;;;;;5068247;28;20469;-70
2022/10/27 00:58:47;;;;;;;13.45;7.60;;;14.00;99.90;;;;;;5049974;28;20079;-71
2022/10/27 01:01:13;;;;;;;15.25;7.78;;;14.10;99.90;;;;;;5039280;28;20092;-71
2022/10/27 01:03:39;;;;;;;16.92;7.63;;;14.10;99.90;;;;;;5050961;28;20077;-70
2022/10/27 01:06:05;;;;;;;15.25;7.95;;;14.10;99.90;;;;;;5067866;28;20049;-70
2022/10/27 01:08:31;;;;;;;14.48;7.95;;;14.10;99.90;;;;;;5061311;28;20055;-70
2022/10/27 01:10:56;;;;;;;12.13;7.45;;;14.10;99.90;;;;;;5039965;28;20550;-70
2022/10/27 01:13:23;;;;;;;13.35;7.43;;;14.10;99.90;;;;;;5039448;28;20172;-70
2022/10/27 01:16:11;;;;;;;14.00;7.45;;;14.10;99.90;;;;;;5041992;28;20049;-71
2022/10/27 01:18:56;;;;;;;12.73;7.15;;;14.10;99.90;;;;;;5048708;28;20078;-70
2022/10/27 01:22:15;;;;;;;12.85;7.88;;;14.10;99.90;;;;;;5049413;28;20078;-70
2022/10/27 01:24:55;;;;;;;14.85;7.80;;;14.00;99.90;;;;;;4971147;28;20051;-71
2022/10/27 01:28:03;;;;;;;16.17;7.57;;;14.00;99.90;;;;;;4971053;28;20057;-70
2022/10/27 01:30:34;;;;;;;15.13;8.57;;;14.10;99.90;;;;;;4967201;29;20063;-71
2022/10/27 01:33:16;;;;;;;13.73;7.75;;;14.10;99.90;;;;;;4966737;29;20107;-70
2022/10/27 01:35:51;;;;;;;14.15;7.72;;;14.10;99.90;;;;;;4968766;28;20090;-70
2022/10/27 01:38:31;;;;;;;16.67;8.18;;;14.10;99.90;;;;;;4989655;28;20106;-70
2022/10/27 01:41:06;;;;;;;10.07;7.68;;;14.20;99.90;;;;;;4992817;28;20058;-71
2022/10/27 01:43:35;;;;;;;14.73;8.13;;;14.10;99.90;;;;;;4968396;28;20058;-70
2022/10/27 01:46:03;;;;;;;13.18;7.78;;;14.20;99.90;;;;;;4965817;28;20111;-71
2022/10/27 01:48:33;;;;;;;14.35;8.80;;;14.20;99.90;;;;;;4965848;28;20127;-70
2022/10/27 01:50:59;;;;;;;17.08;8.90;;;14.10;99.90;;;;;;4985506;28;20062;-70
2022/10/27 01:53:26;;;;;;;12.82;7.43;;;14.20;99.90;;;;;;4967952;28;20054;-70
2022/10/27 01:55:54;;;;;;;14.75;8.07;;;14.20;99.90;;;;;;5009296;28;20100;-70
2022/10/27 01:58:51;;;;;;;17.00;8.43;;;14.30;99.90;;;;;;5004676;28;20046;-70
2022/10/27 02:01:33;;;;;;;14.43;7.90;;;14.30;99.90;;;;;;5012837;28;20043;-70
2022/10/27 02:04:33;;;;;;;14.40;8.05;;;14.30;99.90;;;;;;5004857;28;20522;-70
2022/10/27 02:07:08;;;;;;;14.48;7.50;;;14.30;99.90;;;;;;5053747;28;20053;-70
2022/10/27 02:09:44;;;;;;;16.52;8.02;;;14.30;99.90;;;;;;5046696;28;20076;-70
2022/10/27 02:12:32;;;;;;;13.55;7.90;;;14.30;99.90;;;;;;5066858;28;20075;-71
2022/10/27 02:15:00;;;;;;;13.13;7.78;;;14.40;99.90;;;;;;5036737;28;20084;-70
2022/10/27 02:17:34;;;;;;;17.88;8.02;;;14.30;99.90;;;;;;5065528;28;20093;-71
2022/10/27 02:20:05;;;;;;;16.27;7.82;;;14.30;99.90;;;;;;5048159;28;20052;-70
2022/10/27 02:22:32;;;;;;;11.35;8.13;;;14.40;99.90;;;;;;5064552;28;20104;-71
2022/10/27 02:24:58;;;;;;;13.40;8.13;;;14.40;99.90;;;;;;5067037;28;20472;-70
2022/10/27 02:27:28;;;;;;;13.20;8.80;;;14.50;99.90;;;;;;5043371;28;20060;-70
2022/10/27 02:29:57;;;;;;;14.55;7.95;;;14.50;99.90;;;;;;5037980;28;20049;-70
2022/10/27 02:32:24;;;;;;;11.95;8.10;;;14.50;99.90;;;;;;5049225;28;20045;-70
2022/10/27 02:34:51;;;;;;;13.95;8.65;;;14.50;99.90;;;;;;5048531;28;20056;-71
2022/10/27 02:37:30;;;;;;;13.38;8.77;;;14.60;99.90;;;;;;5060226;28;20055;-70
2022/10/27 02:39:56;;;;;;;13.77;8.23;;;14.50;99.90;;;;;;5057651;28;20090;-70
2022/10/27 02:42:22;;;;;;;19.73;8.88;;;14.60;99.90;;;;;;5057939;28;20048;-70
2022/10/27 02:44:47;;;;;;;15.82;8.93;;;14.60;99.90;;;;;;5056497;28;20052;-71
2022/10/27 02:47:13;;;;;;;14.35;8.93;;;14.50;99.90;;;;;;5053307;28;20034;-71
2022/10/27 02:49:39;;;;;;;15.05;8.73;;;14.60;99.90;;;;;;5056180;28;20158;-70
2022/10/27 02:52:04;;;;;;;19.65;8.65;;;14.50;99.90;;;;;;5053435;28;20064;-71
2022/10/27 02:54:31;;;;;;;17.45;8.98;;;14.50;99.90;;;;;;5044795;28;20124;-70
2022/10/27 02:56:57;;;;;;;13.52;7.82;;;14.40;99.90;;;;;;5068578;28;20083;-71
2022/10/27 02:59:23;;;;;;;15.48;8.52;;;14.50;99.90;;;;;;5072016;28;20101;-70
2022/10/27 03:01:48;;;;;;;13.00;8.23;;;14.40;99.90;;;;;;5047673;28;20048;-70
2022/10/27 03:04:14;;;;;;;12.52;8.52;;;14.50;99.90;;;;;;5049328;28;20050;-70
2022/10/27 03:06:40;;;;;;;15.45;9.25;;;14.40;99.90;;;;;;5067081;28;20131;-71
2022/10/27 03:09:05;;;;;;;13.32;7.88;;;14.40;99.90;;;;;;5070155;28;20037;-70
2022/10/27 03:11:31;;;;;;;12.52;8.23;;;14.30;99.90;;;;;;5068690;28;20052;-70
2022/10/27 03:13:57;;;;;;;16.95;8.45;;;14.40;99.90;;;;;;5062126;28;20037;-70
2022/10/27 03:16:22;;;;;;;15.60;8.35;;;14.40;99.90;;;;;;5054088;28;20104;-70
2022/10/27 03:18:48;;;;;;;17.70;9.00;;;14.30;99.90;;;;;;5063016;28;20631;-70
2022/10/27 03:21:14;;;;;;;12.40;8.88;;;14.50;99.90;;;;;;5031436;28;20049;-70
2022/10/27 03:23:40;;;;;;;10.88;8.02;;;14.40;99.90;;;;;;5073958;28;20064;-71
2022/10/27 03:26:06;;;;;;;15.43;8.70;;;14.40;99.90;;;;;;5030799;28;20067;-70
2022/10/27 03:28:34;;;;;;;17.05;8.82;;;14.40;99.90;;;;;;5059843;28;20045;-70
2022/10/27 03:31:00;;;;;;;13.95;9.07;;;14.30;99.90;;;;;;5042113;28;20045;-70
2022/10/27 03:33:26;;;;;;;11.65;9.15;;;14.30;99.90;;;;;;5041757;28;20528;-70
2022/10/27 03:35:52;;;;;;;16.73;8.70;;;14.40;99.90;;;;;;5077315;28;20048;-70
2022/10/27 03:38:18;;;;;;;13.32;8.45;;;14.40;99.90;;;;;;5047100;28;20127;-70
2022/10/27 03:40:44;;;;;;;15.77;9.00;;;14.40;99.90;;;;;;5040038;28;20053;-70
2022/10/27 03:43:10;;;;;;;14.68;9.02;;;14.30;99.90;;;;;;5060725;28;20383;-70
2022/10/27 03:45:36;;;;;;;12.40;8.25;;;14.30;99.90;;;;;;5042314;28;20498;-70
2022/10/27 03:48:07;;;;;;;15.48;8.75;;;14.30;99.90;;;;;;5070186;28;20146;-70
2022/10/27 03:50:33;;;;;;;12.60;8.48;;;14.20;99.90;;;;;;5052399;28;20049;-70
2022/10/27 03:52:59;;;;;;;13.07;8.38;;;14.20;99.90;;;;;;5069175;28;20051;-70
2022/10/27 03:55:25;;;;;;;12.80;7.40;;;14.10;99.90;;;;;;5031799;28;20045;-70
2022/10/27 03:57:52;;;;;;;12.27;8.32;;;14.00;99.90;;;;;;5057536;28;20064;-70
2022/10/27 04:00:18;;;;;;;15.18;8.45;;;13.90;99.90;;;;;;5083265;28;20036;-70
2022/10/27 04:02:44;;;;;;;15.52;7.53;;;13.80;99.90;;;;;;5055236;28;20049;-70
2022/10/27 04:05:10;;;;;;;13.00;7.95;;;13.70;99.90;;;;;;5061370;28;20055;-70
2022/10/27 04:07:35;;;;;;;16.27;9.27;;;13.70;99.90;;;;;;5076665;28;20040;-71
2022/10/27 04:10:02;;;;;;;16.45;9.88;;;13.70;99.90;;;;;;5057866;28;20402;-70
2022/10/27 04:12:27;;;;;;;15.20;9.38;;;13.70;99.90;;;;;;5037693;28;20052;-70
2022/10/27 04:14:53;;;;;;;11.73;8.73;;;13.70;99.90;;;;;;5057611;28;20045;-70
2022/10/27 04:17:19;;;;;;;16.92;9.55;;;13.70;99.90;;;;;;5053368;28;20037;-70
2022/10/27 04:19:45;;;;;;;16.98;9.05;;;13.70;99.90;;;;;;5044448;28;20033;-70
2022/10/27 04:22:10;;;;;;;16.35;9.68;;;13.70;99.90;;;;;;5035436;28;20061;-70
2022/10/27 04:24:39;;;;;;;16.40;9.27;;;13.70;99.90;;;;;;5060173;28;20044;-70
2022/10/27 04:27:05;;;;;;;13.50;9.02;;;13.70;99.90;;;;;;5063990;28;20060;-70
2022/10/27 04:29:31;;;;;;;14.80;9.25;;;13.70;99.90;;;;;;5065910;28;20048;-70
2022/10/27 04:31:57;;;;;;;16.40;9.38;;;13.70;99.90;;;;;;5061423;28;20048;-70
2022/10/27 04:34:23;;;;;;;17.00;9.75;;;13.70;99.90;;;;;;5055112;28;20044;-71
2022/10/27 04:36:48;;;;;;;13.82;9.95;;;13.70;99.90;;;;;;5048372;28;20051;-68
2022/10/27 04:39:14;;;;;;;14.98;10.02;;;13.70;99.90;;;;;;5098578;28;20045;-68
2022/10/27 04:41:41;;;;;;;16.20;10.70;;;13.70;99.90;;;;;;5065665;28;20047;-68
2022/10/27 04:44:07;;;;;;;17.55;10.15;;;13.80;99.90;;;;;;5067145;28;20103;-68
2022/10/27 04:46:32;;;;;;;12.73;9.85;;;13.70;99.90;;;;;;5050304;28;20075;-68
2022/10/27 04:48:58;;;;;;;14.27;9.75;;;13.70;99.90;;;;;;5065811;28;20048;-68
2022/10/27 04:51:24;;;;;;;15.18;10.95;;;13.70;99.90;;;;;;5065328;28;20072;-68
2022/10/27 04:53:49;;;;;;;13.98;10.13;;;13.80;99.90;;;;;;5064610;28;20052;-69
2022/10/27 04:56:15;;;;;;;16.40;9.52;;;13.80;99.90;;;;;;5045266;28;20036;-69
2022/10/27 04:58:41;;;;;;;15.82;9.63;;;13.70;99.90;;;;;;5082021;28;20173;-69
2022/10/27 05:01:08;;;;;;;13.90;9.98;;;13.70;99.90;;;;;;5051401;28;20045;-70
2022/10/27 05:03:34;;;;;;;16.88;10.05;;;13.80;99.90;;;;;;5048940;28;20072;-69
2022/10/27 05:06:00;;;;;;;13.25;10.27;;;13.80;99.90;;;;;;5064949;28;20135;-69
2022/10/27 05:08:26;;;;;;;17.45;10.48;;;13.80;99.90;;;;;;5062120;28;20047;-70
2022/10/27 05:10:51;;;;;;;17.27;10.18;;;13.70;99.90;;;;;;5065896;28;20045;-70
2022/10/27 05:13:17;;;;;;;14.38;9.45;;;13.70;99.90;;;;;;5067357;28;20056;-70
2022/10/27 05:15:43;;;;;;;13.90;10.10;;;13.70;99.90;;;;;;5083436;28;20029;-70
2022/10/27 05:18:09;;;;;;;13.45;10.10;;;13.60;99.90;;;;;;5064656;28;20040;-70
2022/10/27 05:20:34;;;;;;;16.27;10.30;;;13.70;99.90;;;;;;5084169;28;20044;-73
2022/10/27 05:23:00;;;;;;;17.30;10.75;;;13.60;99.90;;;;;;5067750;28;20095;-69
2022/10/27 05:25:26;;;;;;;15.80;10.35;;;13.60;99.90;;;;;;5063012;28;20128;-70
2022/10/27 05:27:52;;;;;;;19.05;10.07;;;13.50;99.90;;;;;;5063781;28;20048;-69
2022/10/27 05:30:17;;;;;;;18.17;10.52;;;13.50;99.90;;;;;;5049287;28;20052;-69
2022/10/27 05:32:43;;;;;;;18.10;10.75;;;13.40;99.90;;;;;;5086037;28;20119;-69
2022/10/27 05:35:09;;;;;;;14.85;9.88;;;13.50;99.90;;;;;;5087543;28;20088;-70
2022/10/27 05:37:35;;;;;;;13.02;9.52;;;13.50;99.90;;;;;;5087065;28;20040;-69
2022/10/27 05:40:01;;;;;;;17.33;10.95;;;13.40;99.90;;;;;;5061498;28;20078;-70
2022/10/27 05:42:27;;;;;;;18.70;9.68;;;13.40;99.90;;;;;;5071310;28;20048;-70
2022/10/27 05:44:52;;;;;;;15.35;9.45;;;13.30;99.90;;;;;;5086050;28;20044;-70
2022/10/27 05:47:18;;;;;;;20.52;9.68;;;13.30;99.90;;;;;;5076915;28;20087;-69
2022/10/27 05:49:44;;;;;;;14.02;9.80;;;13.20;99.90;;;;;;5052129;28;20048;-69
2022/10/27 05:52:10;;;;;;;14.45;9.27;;;13.20;99.90;;;;;;5086523;28;20105;-70
2022/10/27 05:54:35;;;;;;;19.38;9.80;;;13.00;99.90;;;;;;5089406;28;20075;-70
2022/10/27 05:57:01;;;;;;;15.50;10.05;;;13.00;99.90;;;;;;5066110;28;20123;-70
2022/10/27 05:59:27;;;;;;;16.63;10.45;;;13.00;99.90;;;;;;5052617;28;20044;-70
2022/10/27 06:01:52;;;;;;;12.88;9.07;;;12.90;99.90;;;;;;5069889;28;20048;-70
2022/10/27 06:04:18;;;;;;;11.93;9.27;;;13.00;99.90;;;;;;5083565;28;20112;-70
2022/10/27 06:06:43;;;;;;;12.60;9.73;;;13.00;99.90;;;;;;5087186;28;20056;-69
2022/10/27 06:09:09;;;;;;;14.23;9.00;;;12.90;99.90;;;;;;5085060;28;20048;-69
2022/10/27 06:11:35;;;;;;;14.45;9.85;;;12.90;99.90;;;;;;5051897;28;20048;-71
2022/10/27 06:14:00;;;;;;;12.25;9.38;;;13.10;99.90;;;;;;5027657;28;20504;-69
2022/10/27 06:16:26;;;;;;;13.93;10.23;;;13.10;99.90;;;;;;5068967;28;20098;-70
2022/10/27 06:18:52;;;;;;;14.90;10.15;;;13.10;99.90;;;;;;5059382;28;20055;-69
2022/10/27 06:21:19;;;;;;;14.50;9.15;;;13.20;99.90;;;;;;5055836;28;20052;-70
2022/10/27 06:23:48;;;;;;;15.85;10.20;;;13.20;99.90;;;;;;5078109;28;20095;-69
2022/10/27 06:26:14;;;;;;;14.27;9.85;;;13.20;99.90;;;;;;5062552;28;20044;-69
2022/10/27 06:28:40;;;;;;;14.13;10.23;;;13.30;99.90;;;;;;5075597;28;20052;-69
2022/10/27 06:31:06;;;;;;;18.42;10.25;;;13.30;99.90;;;;;;5051015;28;20158;-69
2022/10/27 06:33:31;;;;;;;15.18;9.73;;;13.30;99.90;;;;;;5054997;28;20045;-70
2022/10/27 06:35:57;;;;;;;14.98;9.63;;;13.20;99.90;;;;;;5071513;28;20052;-70
2022/10/27 06:38:23;;;;;;;15.10;10.02;;;13.20;99.90;;;;;;4999146;28;20079;-68
2022/10/27 06:40:48;;;;;;;13.68;9.77;;;13.10;99.90;;;;;;5066304;28;20052;-69
2022/10/27 06:43:14;;;;;;;14.43;9.82;;;13.10;99.90;;;;;;5043478;28;20269;-69
2022/10/27 06:45:40;;;;;;;14.23;10.13;;;13.20;99.90;;;;;;5070212;28;20051;-69
2022/10/27 06:48:08;;;;;;;14.52;10.70;;;13.20;99.90;;;;;;5061198;28;20056;-69
2022/10/27 06:50:34;;;;;;;15.40;10.02;;;13.20;99.90;;;;;;5067932;28;20121;-69
2022/10/27 06:53:00;;;;;;;15.32;9.23;;;13.30;99.90;;;;;;5060365;28;20044;-69
2022/10/27 06:55:26;;;;;;;21.05;10.52;;;13.20;99.90;;;;;;5046877;28;20906;-69
2022/10/27 06:57:52;;;;;;;14.23;9.50;;;13.40;99.90;;;;;;5039855;28;20047;-69
2022/10/27 07:00:19;;;;;;;16.73;9.68;;;13.40;99.90;;;;;;5050361;28;20128;-69
2022/10/27 07:02:44;;;;;;;15.07;9.30;;;13.50;99.90;;;;;;5059273;28;20048;-69
2022/10/27 07:05:10;;;;;;;16.45;9.70;;;13.60;99.90;;;;;;5031479;28;20060;-69
2022/10/27 07:07:36;;;;;;;12.75;8.95;;;13.50;99.90;;;;;;5073313;28;20789;-69
2022/10/27 07:10:05;;;;;;;16.33;9.45;;;13.60;99.90;;;;;;5078339;28;20590;-69
2022/10/27 07:12:31;;;;;;;14.70;8.90;;;13.70;99.90;;;;;;5056712;28;20083;-69
2022/10/27 07:14:56;;;;;;;13.48;8.85;;;13.70;99.90;;;;;;5044019;28;20083;-69
2022/10/27 07:17:22;;;;;;;13.65;9.80;;;13.60;99.90;;;;;;5079957;28;20497;-70
2022/10/27 07:19:48;;;;;;;14.50;9.00;;;13.70;99.90;;;;;;5055817;28;20060;-69
2022/10/27 07:22:13;;;;;;;14.25;8.88;;;13.80;99.90;;;;;;5064932;28;20072;-70
2022/10/27 07:24:39;;;;;;;14.18;9.15;;;13.80;99.90;;;;;;5052340;28;20052;-69
2022/10/27 07:27:05;;;;;;;15.38;9.23;;;13.80;99.90;;;;;;5063847;28;20121;-69
2022/10/27 07:29:30;;;;;;;16.00;8.70;;;13.90;99.90;;;;;;5052927;28;20059;-69
2022/10/27 07:31:57;;;;;;;18.27;9.35;;;13.90;99.90;;;;;;5068062;28;20055;-69
2022/10/27 07:34:23;;;;;;;14.68;9.27;;;13.90;99.90;;;;;;5061249;28;20063;-70
2022/10/27 07:36:48;;;;;;;17.88;9.32;;;14.00;99.90;;;;;;5037989;28;20049;-70
2022/10/27 07:39:14;;;;;;;14.88;8.18;;;14.10;99.90;;;;;;5036210;28;20112;-69
2022/10/27 07:41:40;;;;;;;16.30;9.05;;;14.20;99.90;;;;;;5049636;28;20067;-69
2022/10/27 07:44:05;;;;;;;15.57;8.93;;;14.20;99.90;;;;;;5060282;28;20048;-69
2022/10/27 07:46:31;;;;;;;16.10;8.70;;;14.40;99.90;;;;;;5062001;28;20045;-69
2022/10/27 07:48:57;;;;;;;14.63;9.70;;;14.40;99.90;;;;;;5058933;28;20052;-70
2022/10/27 07:51:22;;;;;;;18.40;9.45;;;14.40;99.90;;;;;;5071612;28;20040;-69
2022/10/27 07:53:49;;;;;;;14.70;8.27;;;14.50;99.90;;;;;;5058940;28;20056;-69
2022/10/27 07:56:16;;;;;;;15.07;8.98;;;14.60;99.90;;;;;;5064738;28;20041;-69
2022/10/27 07:58:42;;;;;;;16.08;8.48;;;14.60;99.90;;;;;;5040419;28;20855;-68
2022/10/27 08:01:07;;;;;;;15.80;8.50;;;14.70;99.90;;;;;;5046261;28;20072;-69
2022/10/27 08:03:33;;;;;;;12.20;8.40;;;14.70;99.90;;;;;;5040374;28;20041;-69
2022/10/27 08:06:02;;;;;;;14.45;9.15;;;14.80;99.90;;;;;;5066157;28;20063;-69
2022/10/27 08:08:29;;;;;;;15.40;9.05;;;14.80;99.90;;;;;;5059668;28;20060;-69
2022/10/27 08:10:55;;;;;;;13.38;8.48;;;14.80;99.90;;;;;;5062355;28;20461;-70
2022/10/27 08:13:20;;;;;;;15.70;8.70;;;14.80;99.90;;;;;;5024113;28;20041;-69
2022/10/27 08:15:46;;;;;;;12.88;8.55;;;14.80;99.90;;;;;;5043125;28;20056;-69
2022/10/27 08:18:12;;;;;;;17.95;8.93;;;14.90;99.90;;;;;;5042183;28;20049;-69
2022/10/27 08:20:47;;;;;;;17.80;8.27;;;14.90;99.90;;;;;;5044627;28;20049;-69
2022/10/27 08:23:16;;;;;;;14.00;9.20;;;14.90;99.90;;;;;;5042814;28;20041;-69
2022/10/27 08:25:42;;;;;;;15.27;8.65;;;15.00;99.90;;;;;;5047243;28;20048;-70
2022/10/27 08:28:10;;;;;;;15.95;8.88;;;15.00;99.90;;;;;;5042656;28;20045;-69
2022/10/27 08:30:36;;;;;;;13.80;8.43;;;15.10;99.90;;;;;;5047201;28;20052;-70
2022/10/27 08:33:03;;;;;;;12.73;8.48;;;15.10;99.90;;;;;;5062277;28;20039;-68
2022/10/27 08:35:30;;;;;;;12.23;8.23;;;15.10;99.90;;;;;;5038485;28;20132;-68
2022/10/27 08:37:58;;;;;;;12.30;8.15;;;15.10;99.90;;;;;;5018224;28;20054;-66
2022/10/27 08:40:25;;;;;;;13.18;7.90;;;15.20;99.90;;;;;;5047893;28;20147;-67
2022/10/27 08:43:18;;;;;;;14.15;7.75;;;15.30;99.90;;;;;;5042061;28;20068;-67
2022/10/27 08:45:57;;;;;;;12.38;7.90;;;15.20;99.90;;;;;;5029542;28;20229;-67
2022/10/27 08:48:26;;;;;;;12.88;7.82;;;15.30;99.90;;;;;;5042966;28;20052;-67
2022/10/27 08:50:52;;;;;;;12.90;8.52;;;15.30;99.90;;;;;;5031388;28;20053;-67
2022/10/27 08:53:29;;;;;;;12.48;7.80;;;15.30;99.90;;;;;;5043397;28;20488;-67
2022/10/27 08:56:01;;;;;;;14.20;8.75;;;15.40;99.90;;;;;;5026988;28;20050;-67
2022/10/27 08:58:43;;;;;;;14.52;9.43;;;15.40;99.90;;;;;;5029053;28;20040;-67
2022/10/27 09:01:19;;;;;;;12.10;7.80;;;15.40;99.90;;;;;;5028601;28;20063;-67
2022/10/27 09:04:03;;;;;;;13.65;8.60;;;15.50;99.90;;;;;;5036952;28;20049;-67
2022/10/27 09:06:49;;;;;;;14.32;7.38;;;15.70;99.90;;;;;;5016148;28;20091;-67
2022/10/27 09:09:58;;;;;;;21.98;8.23;;;15.80;99.90;;;;;;5050884;28;20064;-67
2022/10/27 09:13:02;;;;;;;10.82;6.85;;;16.00;99.90;;;;;;4996965;28;20085;-67
2022/10/27 09:15:47;;;;;;;12.63;7.15;;;16.10;99.90;;;;;;4987363;28;20088;-67
2022/10/27 09:18:25;;;;;;;14.13;6.97;;;16.30;99.90;;;;;;5002238;28;20494;-67
2022/10/27 09:20:54;;;;;;;10.98;5.82;;;16.40;99.90;;;;;;4995500;28;20472;-67
2022/10/27 09:23:41;;;;;;;10.27;5.75;;;16.50;99.90;;;;;;5006446;28;20053;-67
2022/10/27 09:26:07;;;;;;;12.90;5.10;;;16.70;99.90;;;;;;4993196;28;20065;-67
2022/10/27 09:28:53;;;;;;;8.77;5.00;;;16.80;99.90;;;;;;5004914;28;20136;-67
2022/10/27 09:31:50;;;;;;;9.77;5.68;;;17.10;99.90;;;;;;4982417;28;20070;-67
2022/10/27 09:34:26;;;;;;;8.57;5.78;;;17.20;99.90;;;;;;4997060;28;20045;-69
2022/10/27 09:36:52;;;;;;;9.77;4.63;;;17.30;99.90;;;;;;5003644;28;20063;-67
2022/10/27 09:39:20;;;;;;;10.38;5.18;;;17.40;99.90;;;;;;5014085;28;20115;-68
2022/10/27 09:41:45;;;;;;;8.50;4.60;;;17.40;99.90;;;;;;5043435;28;20121;-67
2022/10/27 09:44:28;;;;;;;11.30;4.65;;;17.40;99.90;;;;;;5061787;28;20590;-67
2022/10/27 09:46:55;;;;;;;9.45;4.18;;;17.40;99.90;;;;;;5027719;28;20084;-67
2022/10/27 09:49:27;;;;;;;8.43;4.25;;;17.50;99.90;;;;;;5062463;28;20054;-67
2022/10/27 09:52:16;;;;;;;7.63;3.95;;;17.60;99.90;;;;;;5068713;28;20056;-67
2022/10/27 09:54:50;;;;;;;14.00;4.18;;;17.70;99.90;;;;;;5058591;28;20049;-67
2022/10/27 09:57:18;;;;;;;8.77;3.88;;;17.60;99.90;;;;;;5059601;28;20083;-67
2022/10/27 09:59:55;;;;;;;7.53;3.97;;;17.60;99.90;;;;;;5062837;28;20098;-67
2022/10/27 10:02:39;;;;;;;8.57;3.75;;;17.60;99.90;;;;;;5074612;28;20092;-68
2022/10/27 10:05:20;;;;;;;8.68;3.60;;;17.60;99.90;;;;;;5059511;28;20397;-67
2022/10/27 10:07:46;;;;;;;6.85;3.30;;;17.70;99.90;;;;;;5070816;28;20044;-67
2022/10/27 10:10:28;;;;;;;7.78;3.28;;;17.80;99.90;;;;;;5049895;28;20143;-67
2022/10/27 10:13:05;;;;;;;6.85;3.22;;;17.80;99.90;;;;;;5072430;28;20207;-67
2022/10/27 10:15:39;;;;;;;6.57;2.97;;;17.90;99.90;;;;;;5077210;28;20060;-66
2022/10/27 10:18:20;;;;;;;8.27;3.13;;;17.90;99.90;;;;;;5078231;28;20313;-66
2022/10/27 10:20:54;;;;;;;7.05;3.50;;;17.90;99.90;;;;;;5073743;28;20045;-66
2022/10/27 10:23:26;;;;;;;7.07;3.55;;;17.90;99.90;;;;;;5063544;28;20046;-66
2022/10/27 10:25:55;;;;;;;6.93;3.50;;;17.90;99.90;;;;;;5050825;28;20080;-66
2022/10/27 10:28:30;;;;;;;8.27;3.97;;;17.90;99.90;;;;;;5072201;28;20072;-65
2022/10/27 10:30:56;;;;;;;7.68;3.13;;;18.00;99.90;;;;;;5051480;28;20037;-66
2022/10/27 10:33:25;;;;;;;7.15;3.38;;;18.00;99.90;;;;;;5069980;28;20109;-66
2022/10/27 10:35:51;;;;;;;7.57;3.00;;;18.10;99.90;;;;;;5045731;28;20070;-66
2022/10/27 10:38:23;;;;;;;11.05;3.58;;;18.40;99.90;;;;;;5048658;28;20061;-66
2022/10/27 10:41:03;;;;;;;6.75;3.45;;;18.50;99.90;;;;;;5057305;28;20126;-66
2022/10/27 10:43:30;;;;;;;5.93;3.28;;;18.50;99.90;;;;;;5071457;28;20040;-66
2022/10/27 10:45:56;;;;;;;6.20;3.25;;;18.60;99.90;;;;;;5054762;28;20040;-66
2022/10/27 10:48:39;;;;;;;6.30;3.10;;;18.70;99.90;;;;;;5081142;28;20131;-66
2022/10/27 10:51:06;;;;;;;7.80;2.75;;;18.70;99.90;;;;;;5054161;28;20044;-66
2022/10/27 10:53:38;;;;;;;5.68;2.75;;;18.60;99.90;;;;;;5083811;28;20048;-65
2022/10/27 10:56:19;;;;;;;5.30;2.60;;;18.70;99.90;;;;;;5061817;28;20040;-66
2022/10/27 10:58:46;;;;;;;7.25;2.63;;;18.60;99.90;;;;;;5077402;28;20090;-65
2022/10/27 11:01:12;;;;;;;6.57;2.47;;;18.60;99.90;;;;;;5061318;28;20044;-67
2022/10/27 11:03:44;;;;;;;6.03;2.60;;;18.60;99.90;;;;;;5069151;28;20059;-66
2022/10/27 11:06:19;;;;;;;6.78;2.60;;;18.60;99.90;;;;;;5063334;28;20060;-66
2022/10/27 11:08:59;;;;;;;8.23;2.60;;;18.60;99.90;;;;;;5076618;28;20044;-66
2022/10/27 11:11:27;;;;;;;5.32;3.00;;;18.60;99.90;;;;;;5053171;28;20056;-66
2022/10/27 11:13:58;;;;;;;10.27;3.17;;;18.60;99.90;;;;;;5063945;28;20099;-66
2022/10/27 11:16:24;;;;;;;5.05;2.50;;;18.70;99.90;;;;;;5059246;28;20578;-66
2022/10/27 11:18:51;;;;;;;6.93;2.78;;;18.80;99.90;;;;;;5078729;28;20052;-66
2022/10/27 11:21:27;;;;;;;7.38;2.35;;;18.90;99.90;;;;;;5036370;28;20044;-67
2022/10/27 11:23:58;;;;;;;5.15;2.40;;;18.90;99.90;;;;;;5091029;28;20122;-66
2022/10/27 11:26:33;;;;;;;6.82;2.40;;;19.00;99.90;;;;;;5042025;28;20073;-66
2022/10/27 11:29:23;;;;;;;4.85;2.47;;;19.00;99.90;;;;;;5057615;28;20041;-66
2022/10/27 11:32:10;;;;;;;;;;;19.10;99.90;;;;;;5062492;28;20095;-67
2022/10/27 11:34:48;;;;;;;6.35;2.20;;;19.10;99.90;;;;;;5067709;28;19919;-66
2022/10/27 11:37:27;;;;;;;5.88;2.63;;;19.10;99.90;;;;;;5033272;28;20049;-66
2022/10/27 11:39:59;;;;;;;6.53;2.28;;;19.10;99.90;;;;;;5068538;28;20137;-66
2022/10/27 11:42:56;;;;;;;6.00;2.08;;;19.00;99.90;;;;;;5072465;28;20033;-67
2022/10/27 11:45:45;;;;;;;5.60;2.65;;;19.00;99.90;;;;;;5066673;28;20128;-66
2022/10/27 11:48:17;;;;;;;;;;;18.90;99.90;;;;;;5065296;28;20052;-66
2022/10/27 11:50:52;;;;;;;6.20;2.47;;;18.90;99.90;;;;;;5051827;28;20439;-66
2022/10/27 11:53:19;;;;;;;4.75;2.65;;;18.90;99.90;;;;;;5044217;28;20543;-66
2022/10/27 11:56:17;;;;;;;4.38;2.35;;;18.90;99.90;;;;;;5058476;28;20048;-66
2022/10/27 11:59:07;;;;;;;5.18;2.47;;;18.90;99.90;;;;;;5082558;28;20054;-66
2022/10/27 12:01:36;;;;;;;;;;;18.90;99.90;;;;;;5048815;28;20563;-67
2022/10/27 12:04:13;;;;;;;5.22;2.38;;;18.90;99.90;;;;;;5067114;28;19946;-66
2022/10/27 12:07:14;;;;;;;4.90;2.10;;;18.90;99.90;;;;;;5055659;28;20052;-66
2022/10/27 12:10:27;;;;;;;5.22;2.50;;;18.90;99.90;;;;;;5084815;28;20045;-66
2022/10/27 12:13:20;;;;;;;7.55;2.50;;;18.90;99.90;;;;;;5001888;28;20181;-66
2022/10/27 12:16:18;;;;;;;5.18;2.35;;;18.90;99.90;;;;;;5020797;28;20207;-66
2022/10/27 12:18:58;;;;;;;4.78;1.80;;;19.10;99.90;;;;;;4983566;28;20399;-66
2022/10/27 12:21:43;;;;;;;6.18;2.20;;;19.10;99.90;;;;;;5016539;28;20140;-68
2022/10/27 12:24:27;;;;;;;4.75;2.25;;;19.20;99.90;;;;;;5007563;28;20050;-67
2022/10/27 12:27:04;;;;;;;3.92;2.05;;;19.30;99.90;;;;;;4995160;28;20077;-66
2022/10/27 12:29:45;;;;;;;4.93;1.90;;;19.20;99.90;;;;;;5010247;28;20165;-67
2022/10/27 12:32:21;;;;;;;4.90;2.20;;;19.30;99.90;;;;;;5000754;28;20058;-66
2022/10/27 12:34:58;;;;;;;5.63;2.25;;;19.40;99.90;;;;;;5011872;28;20057;-66
2022/10/27 12:38:04;;;;;;;6.65;2.50;;;19.50;99.90;;;;;;4985413;28;20069;-66
2022/10/27 12:40:41;;;;;;;4.75;2.08;;;19.60;99.90;;;;;;4989380;28;20054;-67
2022/10/27 12:43:28;;;;;;;5.28;2.38;;;19.70;99.90;;;;;;5010078;28;20037;-66
2022/10/27 12:46:35;;;;;;;3.70;1.90;;;19.80;99.90;;;;;;5004202;28;20064;-66
2022/10/27 12:49:24;;;;;;;4.68;2.10;;;19.80;99.90;;;;;;5053989;28;20082;-66
2022/10/27 12:52:24;;;;;;;7.65;2.60;;;19.80;99.90;;;;;;5065176;28;20045;-66
2022/10/27 12:54:49;;;;;;;;;;;19.80;99.90;;;;;;4960175;29;20074;-66
2022/10/27 12:57:15;;;;;;;6.20;1.95;;;19.70;99.90;;;;;;4965264;28;19926;-66
2022/10/27 13:00:02;;;;;;;6.40;2.25;;;19.70;99.90;;;;;;4963118;28;20057;-67
2022/10/27 13:02:38;;;;;;;4.82;2.10;;;19.70;99.90;;;;;;4927148;28;20053;-68